Time;durP1;ratioP1;P1;durP2;ratioP2;P2;SDS_P1;SDS_P2;PMS_P1;PMS_P2;Temp;Humidity;BMP_temperature;BMP_pressure;BME280_temperature;BME280_humidity;BME280_pressure;Samples;Min_cycle;Max_cycle;Signal;HPM_P1;HPM_P2
2023/11/17 00:00:09;;;;;;;1.48;1.30;;;5.50;99.90;;;;;;5088955;28;20195;-76
2023/11/17 00:02:35;;;;;;;2.47;1.45;;;5.50;99.90;;;;;;5088837;28;20194;-76
2023/11/17 00:05:03;;;;;;;2.22;1.48;;;5.50;99.90;;;;;;5091479;28;20233;-77
2023/11/17 00:07:29;;;;;;;2.78;1.52;;;5.50;99.90;;;;;;5091103;28;20289;-77
2023/11/17 00:09:57;;;;;;;1.30;1.15;;;5.50;99.90;;;;;;5087991;28;20202;-77
2023/11/17 00:12:24;;;;;;;1.92;1.70;;;5.50;99.90;;;;;;5090028;28;20209;-76
2023/11/17 00:14:52;;;;;;;4.80;2.40;;;5.50;99.90;;;;;;5086560;28;20241;-76
2023/11/17 00:17:19;;;;;;;1.33;1.23;;;5.50;99.90;;;;;;5087202;28;20595;-76
2023/11/17 00:19:46;;;;;;;2.08;1.25;;;5.50;99.90;;;;;;5092243;28;20294;-76
2023/11/17 00:22:14;;;;;;;1.25;1.25;;;5.50;99.90;;;;;;5086979;28;20201;-76
2023/11/17 00:24:42;;;;;;;1.30;0.93;;;5.40;99.90;;;;;;5087192;28;20223;-76
2023/11/17 00:27:10;;;;;;;1.35;1.25;;;5.30;99.90;;;;;;5086796;28;20286;-76
2023/11/17 00:29:37;;;;;;;1.77;1.67;;;5.30;99.90;;;;;;5086033;28;20203;-77
2023/11/17 00:32:06;;;;;;;0.73;0.73;;;5.40;99.90;;;;;;5086904;28;20203;-76
2023/11/17 00:34:33;;;;;;;1.05;0.60;;;5.30;99.90;;;;;;5086886;28;20203;-76
2023/11/17 00:37:06;;;;;;;0.80;0.70;;;5.30;99.90;;;;;;5086975;28;20660;-76
2023/11/17 00:39:34;;;;;;;0.85;0.85;;;5.30;99.90;;;;;;5080505;28;20218;-76
2023/11/17 00:42:02;;;;;;;0.75;0.75;;;5.30;99.90;;;;;;5086171;28;20203;-76
2023/11/17 00:44:29;;;;;;;0.65;0.65;;;5.20;99.90;;;;;;5086716;28;20203;-75
2023/11/17 00:46:56;;;;;;;0.90;0.90;;;5.30;99.90;;;;;;5093372;28;20205;-76
2023/11/17 00:49:25;;;;;;;0.82;0.70;;;5.20;99.90;;;;;;5091183;28;20201;-76
2023/11/17 00:51:52;;;;;;;1.35;1.15;;;5.20;99.90;;;;;;5087542;28;20219;-76
2023/11/17 00:54:25;;;;;;;0.60;0.47;;;5.20;99.90;;;;;;5089234;28;20244;-76
2023/11/17 00:56:54;;;;;;;1.30;1.10;;;5.30;99.90;;;;;;5087478;28;20203;-76
2023/11/17 00:59:21;;;;;;;0.60;0.60;;;5.20;99.90;;;;;;5086034;28;20583;-76
2023/11/17 01:01:48;;;;;;;0.63;0.63;;;5.10;99.90;;;;;;5086281;28;20314;-76
2023/11/17 01:04:15;;;;;;;0.90;0.75;;;5.00;99.90;;;;;;5088342;28;20215;-76
2023/11/17 01:06:43;;;;;;;0.80;0.80;;;5.10;99.90;;;;;;5086497;28;20280;-76
2023/11/17 01:09:10;;;;;;;0.75;0.73;;;5.10;99.90;;;;;;5087986;28;20201;-76
2023/11/17 01:11:39;;;;;;;1.15;0.95;;;5.20;99.90;;;;;;5087801;28;20206;-77
2023/11/17 01:14:08;;;;;;;0.88;0.80;;;4.90;99.90;;;;;;5094592;28;20238;-76
2023/11/17 01:16:35;;;;;;;0.40;0.38;;;5.10;99.90;;;;;;5086519;28;20203;-76
2023/11/17 01:19:02;;;;;;;0.63;0.63;;;4.90;99.90;;;;;;5092625;28;20562;-76
2023/11/17 01:21:29;;;;;;;0.70;0.70;;;4.90;99.90;;;;;;5091125;28;20219;-76
2023/11/17 01:23:57;;;;;;;0.93;0.60;;;4.90;99.90;;;;;;5090674;28;20599;-76
2023/11/17 01:26:24;;;;;;;0.47;0.47;;;4.80;99.90;;;;;;5090394;28;20229;-76
2023/11/17 01:28:51;;;;;;;0.82;0.82;;;4.80;99.90;;;;;;5092553;28;20203;-76
2023/11/17 01:31:19;;;;;;;0.40;0.40;;;4.90;99.90;;;;;;5083068;28;20314;-76
2023/11/17 01:33:48;;;;;;;2.15;0.90;;;4.90;99.90;;;;;;5095117;28;20286;-76
2023/11/17 01:36:15;;;;;;;0.52;0.52;;;5.00;99.90;;;;;;5089476;28;20619;-75
2023/11/17 01:38:42;;;;;;;0.75;0.75;;;4.80;99.90;;;;;;5089677;28;20205;-75
2023/11/17 01:41:10;;;;;;;1.13;0.95;;;4.90;99.90;;;;;;5090371;28;20205;-75
2023/11/17 01:43:38;;;;;;;1.88;0.70;;;4.90;99.90;;;;;;5096482;28;20195;-75
2023/11/17 01:46:05;;;;;;;1.00;0.90;;;4.90;99.90;;;;;;5090069;28;20214;-75
2023/11/17 01:48:47;;;;;;;1.20;0.90;;;4.80;99.90;;;;;;5148277;27;21065;-76
2023/11/17 01:51:36;;;;;;;1.02;0.93;;;4.90;99.90;;;;;;5138087;27;20594;-76
2023/11/17 01:54:03;;;;;;;1.35;1.20;;;4.90;99.90;;;;;;5157896;27;20192;-76
2023/11/17 01:56:43;;;;;;;0.65;0.65;;;4.90;99.90;;;;;;5147695;27;20195;-76
2023/11/17 01:59:16;;;;;;;1.23;1.05;;;4.90;99.90;;;;;;5148612;27;20369;-76
2023/11/17 02:01:46;;;;;;;2.47;1.50;;;5.00;99.90;;;;;;5159223;27;20256;-75
2023/11/17 02:04:15;;;;;;;1.60;1.50;;;4.90;99.90;;;;;;5154742;27;20192;-75
2023/11/17 02:06:48;;;;;;;1.40;1.30;;;4.90;99.90;;;;;;5157706;27;20215;-76
2023/11/17 02:09:30;;;;;;;1.13;1.08;;;5.10;99.90;;;;;;5151487;27;20200;-76
2023/11/17 02:12:10;;;;;;;1.23;1.13;;;5.00;99.90;;;;;;5154471;27;20203;-76
2023/11/17 02:14:42;;;;;;;0.98;0.98;;;5.10;99.90;;;;;;5149662;27;20203;-76
2023/11/17 02:17:15;;;;;;;1.08;0.82;;;5.00;99.90;;;;;;5154331;27;20318;-76
2023/11/17 02:19:45;;;;;;;1.73;1.30;;;5.00;99.90;;;;;;5148617;27;20194;-76
2023/11/17 02:22:16;;;;;;;1.50;1.40;;;5.00;99.90;;;;;;5140042;27;20752;-76
2023/11/17 02:24:53;;;;;;;1.67;0.95;;;5.00;99.90;;;;;;5150997;27;20207;-76
2023/11/17 02:27:33;;;;;;;2.22;1.60;;;5.00;99.90;;;;;;5145766;27;20224;-76
2023/11/17 02:30:04;;;;;;;0.82;0.82;;;5.00;99.90;;;;;;5151211;27;20200;-76
2023/11/17 02:32:38;;;;;;;1.60;1.50;;;5.00;99.90;;;;;;5150545;27;20276;-76
2023/11/17 02:35:08;;;;;;;2.13;1.63;;;5.00;99.90;;;;;;5154524;27;20267;-76
2023/11/17 02:37:38;;;;;;;1.70;1.00;;;5.00;99.90;;;;;;5153982;27;20223;-76
2023/11/17 02:40:18;;;;;;;1.20;1.10;;;5.10;99.90;;;;;;5155311;27;20692;-76
2023/11/17 02:42:48;;;;;;;1.88;1.30;;;5.00;99.90;;;;;;5152611;27;20216;-76
2023/11/17 02:45:20;;;;;;;1.33;1.23;;;5.10;99.90;;;;;;5152660;27;20268;-76
2023/11/17 02:47:48;;;;;;;2.85;1.45;;;5.20;99.90;;;;;;5152318;27;20235;-76
2023/11/17 02:50:18;;;;;;;1.33;1.10;;;5.10;99.90;;;;;;5148639;27;20368;-76
2023/11/17 02:53:00;;;;;;;1.65;1.55;;;5.20;99.90;;;;;;5152014;27;20241;-76
2023/11/17 02:55:29;;;;;;;1.30;1.20;;;5.20;99.90;;;;;;5150736;27;20204;-76
2023/11/17 02:57:58;;;;;;;2.05;1.52;;;5.20;99.90;;;;;;5153829;27;20715;-76
2023/11/17 03:00:27;;;;;;;1.73;1.63;;;5.20;99.90;;;;;;5140666;27;20240;-76
2023/11/17 03:02:57;;;;;;;2.42;1.90;;;5.10;99.90;;;;;;5133709;27;20255;-76
2023/11/17 03:05:26;;;;;;;1.77;1.17;;;5.20;99.90;;;;;;5139203;27;20199;-75
2023/11/17 03:07:53;;;;;;;4.20;1.75;;;5.20;99.90;;;;;;5140772;27;20303;-76
2023/11/17 03:10:21;;;;;;;2.05;1.40;;;5.20;99.90;;;;;;5138576;27;20619;-76
2023/11/17 03:12:50;;;;;;;1.88;1.27;;;5.10;99.90;;;;;;5139265;27;20582;-76
2023/11/17 03:15:17;;;;;;;0.98;0.90;;;5.20;99.90;;;;;;5136796;27;20194;-76
2023/11/17 03:17:46;;;;;;;1.13;0.90;;;5.10;99.90;;;;;;5145343;27;20568;-76
2023/11/17 03:20:15;;;;;;;1.15;0.93;;;5.10;99.90;;;;;;5138300;27;20198;-76
2023/11/17 03:22:44;;;;;;;1.10;1.10;;;5.10;99.90;;;;;;5138249;27;20278;-76
2023/11/17 03:25:15;;;;;;;1.73;1.15;;;5.10;99.90;;;;;;5130044;27;20272;-76
2023/11/17 03:27:44;;;;;;;1.63;1.38;;;5.20;99.90;;;;;;5134543;27;20722;-76
2023/11/17 03:30:12;;;;;;;1.02;0.90;;;5.10;99.90;;;;;;5139918;27;20189;-76
2023/11/17 03:32:40;;;;;;;0.80;0.80;;;5.10;99.90;;;;;;5137425;27;20193;-76
2023/11/17 03:35:09;;;;;;;1.80;0.98;;;5.00;99.90;;;;;;5140083;27;20729;-76
2023/11/17 03:37:38;;;;;;;1.10;1.10;;;5.10;99.90;;;;;;5138246;27;20216;-76
2023/11/17 03:40:07;;;;;;;1.42;1.33;;;5.00;99.90;;;;;;5140984;27;20208;-76
2023/11/17 03:42:35;;;;;;;1.20;1.20;;;5.00;99.90;;;;;;5137906;27;20628;-76
2023/11/17 03:45:07;;;;;;;1.67;1.00;;;5.10;99.90;;;;;;5135667;27;20207;-76
2023/11/17 03:47:35;;;;;;;0.90;0.90;;;5.00;99.90;;;;;;5137414;27;20731;-76
2023/11/17 03:50:03;;;;;;;0.88;0.85;;;5.00;99.90;;;;;;5142678;27;20577;-76
2023/11/17 03:52:32;;;;;;;1.40;0.90;;;5.00;99.90;;;;;;5137778;27;20209;-76
2023/11/17 03:55:00;;;;;;;1.17;0.98;;;5.00;99.90;;;;;;5135660;27;20225;-76
2023/11/17 03:57:28;;;;;;;1.13;1.05;;;5.00;99.90;;;;;;5140907;27;20676;-76
2023/11/17 03:59:57;;;;;;;1.90;1.27;;;4.90;99.90;;;;;;5139599;27;20199;-76
2023/11/17 04:02:24;;;;;;;0.73;0.68;;;5.00;99.90;;;;;;5137943;27;20210;-76
2023/11/17 04:04:51;;;;;;;0.82;0.82;;;5.00;99.90;;;;;;5138121;27;20188;-76
2023/11/17 04:07:19;;;;;;;1.10;1.10;;;5.00;99.90;;;;;;5137652;27;20220;-76
2023/11/17 04:09:48;;;;;;;2.95;2.17;;;5.00;99.90;;;;;;5139631;27;20287;-76
2023/11/17 04:12:15;;;;;;;2.30;2.03;;;5.00;99.90;;;;;;5137731;27;20194;-76
2023/11/17 04:14:42;;;;;;;2.33;1.70;;;5.00;99.90;;;;;;5136922;27;20201;-76
2023/11/17 04:17:10;;;;;;;3.08;2.63;;;4.90;99.90;;;;;;5137163;27;20717;-76
2023/11/17 04:19:37;;;;;;;2.80;1.90;;;5.00;99.90;;;;;;5133235;27;20201;-76
2023/11/17 04:22:04;;;;;;;3.55;1.35;;;4.90;99.90;;;;;;5137088;27;20220;-76
2023/11/17 04:24:32;;;;;;;1.75;1.55;;;5.00;99.90;;;;;;5134365;27;20594;-76
2023/11/17 04:27:00;;;;;;;1.60;0.95;;;5.00;99.90;;;;;;5139834;27;20200;-76
2023/11/17 04:29:27;;;;;;;1.10;1.00;;;5.00;99.90;;;;;;5139674;27;21006;-77
2023/11/17 04:31:55;;;;;;;1.45;1.35;;;5.00;99.90;;;;;;5137962;27;20287;-76
2023/11/17 04:34:22;;;;;;;1.92;1.00;;;5.00;99.90;;;;;;5136558;27;20198;-76
2023/11/17 04:36:49;;;;;;;1.30;1.00;;;5.00;99.90;;;;;;5136907;27;20204;-77
2023/11/17 04:39:20;;;;;;;1.65;1.55;;;5.00;99.90;;;;;;5132851;27;20658;-77
2023/11/17 04:41:48;;;;;;;1.23;1.13;;;5.10;99.90;;;;;;5136039;27;20619;-77
2023/11/17 04:44:17;;;;;;;1.10;1.00;;;5.10;99.90;;;;;;5137374;27;20268;-77
2023/11/17 04:46:44;;;;;;;1.13;1.05;;;5.00;99.90;;;;;;5136312;27;20696;-77
2023/11/17 04:49:12;;;;;;;1.35;0.70;;;5.00;99.90;;;;;;5139068;27;21423;-77
2023/11/17 04:51:39;;;;;;;3.42;0.82;;;5.00;99.90;;;;;;5136847;27;20701;-76
2023/11/17 04:54:06;;;;;;;1.00;0.70;;;5.00;99.90;;;;;;5137360;27;20556;-76
2023/11/17 04:56:33;;;;;;;1.70;1.23;;;5.00;99.90;;;;;;5139529;27;20790;-77
2023/11/17 04:59:00;;;;;;;1.60;1.50;;;5.00;99.90;;;;;;5132911;27;20204;-77
2023/11/17 05:01:28;;;;;;;1.17;1.08;;;5.10;99.90;;;;;;5125945;27;20208;-77
2023/11/17 05:03:55;;;;;;;1.60;1.10;;;5.00;99.90;;;;;;5139711;27;20196;-77
2023/11/17 05:06:23;;;;;;;2.17;1.27;;;5.10;99.90;;;;;;5133448;27;20269;-77
2023/11/17 05:08:50;;;;;;;0.73;0.65;;;5.00;99.90;;;;;;5137651;27;20216;-76
2023/11/17 05:11:17;;;;;;;0.90;0.90;;;5.00;99.90;;;;;;5136665;27;20281;-77
2023/11/17 05:13:47;;;;;;;1.15;1.05;;;5.00;99.90;;;;;;5144959;27;20520;-77
2023/11/17 05:16:14;;;;;;;6.80;5.78;;;5.00;99.90;;;;;;5131971;27;20193;-77
2023/11/17 05:18:43;;;;;;;1.50;1.40;;;5.10;99.90;;;;;;5138785;27;21233;-77
2023/11/17 05:21:12;;;;;;;1.25;1.15;;;5.10;99.90;;;;;;5131920;27;20192;-77
2023/11/17 05:23:39;;;;;;;1.73;1.63;;;5.00;99.90;;;;;;5142821;27;20280;-76
2023/11/17 05:26:06;;;;;;;1.60;1.50;;;5.10;99.90;;;;;;5140363;27;20637;-76
2023/11/17 05:28:33;;;;;;;2.50;2.30;;;5.10;99.90;;;;;;5136675;27;20224;-77
2023/11/17 05:31:02;;;;;;;1.65;1.50;;;5.10;99.90;;;;;;5139670;27;20238;-77
2023/11/17 05:33:29;;;;;;;1.30;1.20;;;5.10;99.90;;;;;;5139541;27;20201;-76
2023/11/17 05:35:57;;;;;;;1.15;1.05;;;5.10;99.90;;;;;;5136585;27;20513;-77
2023/11/17 05:38:25;;;;;;;0.75;0.75;;;5.10;99.90;;;;;;5134311;27;20276;-77
2023/11/17 05:40:53;;;;;;;1.27;1.17;;;5.20;99.90;;;;;;5141463;27;20192;-76
2023/11/17 05:43:20;;;;;;;0.93;0.90;;;5.00;99.90;;;;;;5135713;27;20237;-76
2023/11/17 05:45:50;;;;;;;2.45;1.00;;;5.20;99.90;;;;;;5139129;27;20196;-75
2023/11/17 05:48:17;;;;;;;1.38;1.00;;;5.20;99.90;;;;;;5133806;27;20217;-75
2023/11/17 05:50:44;;;;;;;1.48;1.05;;;5.10;99.90;;;;;;5135984;27;20208;-75
2023/11/17 05:53:12;;;;;;;1.42;1.33;;;5.10;99.90;;;;;;5132766;27;20199;-75
2023/11/17 05:55:40;;;;;;;1.30;1.20;;;5.10;99.90;;;;;;5135315;27;20598;-75
2023/11/17 05:58:07;;;;;;;1.10;1.00;;;5.10;99.90;;;;;;5136124;27;20193;-75
2023/11/17 06:00:34;;;;;;;2.50;1.05;;;5.10;99.90;;;;;;5136529;27;20193;-75
2023/11/17 06:03:01;;;;;;;1.23;1.13;;;5.10;99.90;;;;;;5135579;27;20196;-75
2023/11/17 06:05:28;;;;;;;1.58;1.17;;;5.10;99.90;;;;;;5138076;27;20656;-76
2023/11/17 06:07:53;;;;;;;0.98;0.70;;;5.10;99.90;;;;;;5135554;27;20201;-82
2023/11/17 06:10:22;;;;;;;1.30;1.20;;;5.20;99.90;;;;;;5135958;27;20567;-78
2023/11/17 06:12:50;;;;;;;2.60;1.50;;;5.30;99.90;;;;;;5141665;27;20614;-77
2023/11/17 06:15:20;;;;;;;1.38;1.02;;;5.20;99.90;;;;;;5119339;27;20652;-78
2023/11/17 06:17:48;;;;;;;2.97;1.42;;;5.30;99.90;;;;;;5126974;27;20224;-78
2023/11/17 06:20:16;;;;;;;1.15;0.93;;;5.20;99.90;;;;;;5134120;27;20446;-76
2023/11/17 06:22:43;;;;;;;2.15;1.10;;;5.20;99.90;;;;;;5137539;27;22218;-73
2023/11/17 06:25:10;;;;;;;0.95;0.80;;;5.30;99.90;;;;;;5136108;27;20200;-77
2023/11/17 06:27:38;;;;;;;1.05;0.95;;;5.30;99.90;;;;;;5135243;27;20663;-75
2023/11/17 06:30:07;;;;;;;2.42;1.60;;;5.20;99.90;;;;;;5132987;27;20287;-72
2023/11/17 06:32:34;;;;;;;1.70;1.45;;;5.20;99.90;;;;;;5135160;27;20198;-71
2023/11/17 06:35:01;;;;;;;1.80;1.60;;;5.20;99.90;;;;;;5141282;27;20276;-71
2023/11/17 06:37:27;;;;;;;3.30;1.98;;;5.20;99.90;;;;;;5138762;27;20197;-73
2023/11/17 06:39:54;;;;;;;1.90;0.73;;;5.20;99.90;;;;;;5139694;27;20212;-72
2023/11/17 06:42:22;;;;;;;1.70;1.33;;;5.20;99.90;;;;;;5142439;27;20197;-73
2023/11/17 06:44:51;;;;;;;1.80;1.50;;;5.20;99.90;;;;;;5138603;27;20553;-73
2023/11/17 06:47:18;;;;;;;1.00;0.80;;;5.10;99.90;;;;;;5130687;27;20232;-72
2023/11/17 06:49:44;;;;;;;1.73;1.40;;;5.30;99.90;;;;;;5144540;27;20316;-73
2023/11/17 06:52:12;;;;;;;1.13;0.75;;;5.20;99.90;;;;;;5139481;27;20197;-73
2023/11/17 06:54:39;;;;;;;1.35;1.25;;;5.20;99.90;;;;;;5137515;27;20277;-74
2023/11/17 06:57:07;;;;;;;1.48;1.38;;;5.30;99.90;;;;;;5129785;27;20207;-73
2023/11/17 06:59:34;;;;;;;1.08;1.00;;;5.20;99.90;;;;;;5127651;27;20216;-74
2023/11/17 07:02:03;;;;;;;1.15;1.02;;;5.20;99.90;;;;;;5140776;27;20189;-74
2023/11/17 07:04:31;;;;;;;1.23;1.10;;;5.20;99.90;;;;;;5130207;27;20581;-73
2023/11/17 07:06:59;;;;;;;2.03;1.10;;;5.20;99.90;;;;;;5127045;27;20198;-74
2023/11/17 07:09:30;;;;;;;1.40;0.95;;;5.10;99.90;;;;;;5138461;27;20214;-74
2023/11/17 07:11:59;;;;;;;0.85;0.85;;;5.20;99.90;;;;;;5137082;27;20575;-74
2023/11/17 07:14:27;;;;;;;0.88;0.82;;;5.10;99.90;;;;;;5119350;27;20190;-74
2023/11/17 07:16:54;;;;;;;1.25;1.13;;;5.20;99.90;;;;;;5136129;27;20533;-74
2023/11/17 07:19:24;;;;;;;4.25;0.95;;;5.10;99.90;;;;;;5131909;27;20276;-74
2023/11/17 07:21:51;;;;;;;1.00;0.90;;;5.20;99.90;;;;;;5120102;27;20659;-74
2023/11/17 07:24:19;;;;;;;1.27;1.15;;;5.20;99.90;;;;;;5134408;27;20216;-74
2023/11/17 07:26:46;;;;;;;1.63;1.00;;;5.20;99.90;;;;;;5133499;27;20205;-74
2023/11/17 07:29:14;;;;;;;1.75;1.35;;;5.20;99.90;;;;;;5140499;27;20266;-74
2023/11/17 07:31:43;;;;;;;1.50;1.40;;;5.20;99.90;;;;;;5140049;27;20197;-74
2023/11/17 07:34:15;;;;;;;1.45;1.35;;;5.10;99.90;;;;;;5137886;27;20270;-74
2023/11/17 07:36:44;;;;;;;2.88;1.42;;;5.10;99.90;;;;;;5137304;27;20201;-74
2023/11/17 07:39:13;;;;;;;1.00;0.80;;;5.20;99.90;;;;;;5133030;27;20204;-74
2023/11/17 07:41:40;;;;;;;1.95;1.85;;;5.20;99.90;;;;;;5137790;27;20274;-74
2023/11/17 07:44:07;;;;;;;1.23;1.05;;;5.30;99.90;;;;;;5137815;27;20197;-74
2023/11/17 07:46:34;;;;;;;1.45;1.17;;;5.30;99.90;;;;;;5140494;27;20553;-74
2023/11/17 07:49:02;;;;;;;1.02;0.90;;;5.30;99.90;;;;;;5138451;27;20219;-74
2023/11/17 07:51:29;;;;;;;0.60;0.60;;;5.30;99.90;;;;;;5140746;27;20653;-74
2023/11/17 07:53:59;;;;;;;1.67;0.75;;;5.30;99.90;;;;;;5141127;27;20287;-74
2023/11/17 07:56:27;;;;;;;2.83;2.58;;;5.20;99.90;;;;;;5128687;27;20281;-74
2023/11/17 07:58:56;;;;;;;1.20;1.10;;;5.30;99.90;;;;;;5133629;27;20221;-72
2023/11/17 08:01:23;;;;;;;1.35;1.25;;;5.20;99.90;;;;;;5138732;27;20780;-73
2023/11/17 08:03:50;;;;;;;1.52;1.42;;;5.30;99.90;;;;;;5130783;27;21018;-73
2023/11/17 08:06:18;;;;;;;1.80;1.15;;;5.20;99.90;;;;;;5134242;27;20274;-73
2023/11/17 08:08:46;;;;;;;0.70;0.70;;;5.40;99.90;;;;;;5138942;27;20216;-73
2023/11/17 08:11:15;;;;;;;1.45;1.35;;;5.40;99.90;;;;;;5122645;27;20194;-73
2023/11/17 08:13:42;;;;;;;3.53;2.25;;;5.40;99.90;;;;;;5131305;27;20211;-73
2023/11/17 08:16:09;;;;;;;1.42;1.33;;;5.50;99.90;;;;;;5133650;27;20190;-73
2023/11/17 08:18:36;;;;;;;2.05;1.85;;;5.40;99.90;;;;;;5132401;27;20198;-73
2023/11/17 08:21:05;;;;;;;1.25;1.15;;;5.50;99.90;;;;;;5140558;27;20192;-73
2023/11/17 08:23:31;;;;;;;1.73;1.48;;;5.40;99.90;;;;;;5132340;27;20224;-73
2023/11/17 08:25:58;;;;;;;1.40;0.90;;;5.50;99.90;;;;;;5125576;27;20276;-73
2023/11/17 08:28:28;;;;;;;1.70;1.17;;;5.60;99.90;;;;;;5130252;27;20190;-74
2023/11/17 08:30:56;;;;;;;1.00;1.00;;;5.70;99.90;;;;;;5133251;27;20193;-73
2023/11/17 08:33:23;;;;;;;1.13;1.02;;;5.70;99.90;;;;;;5139592;27;20191;-73
2023/11/17 08:35:50;;;;;;;1.45;1.30;;;5.70;99.90;;;;;;5128143;27;20243;-73
2023/11/17 08:38:17;;;;;;;2.55;1.15;;;5.80;99.90;;;;;;5130902;27;20193;-73
2023/11/17 08:40:44;;;;;;;1.75;1.65;;;5.80;99.90;;;;;;5136958;27;20557;-73
2023/11/17 08:43:11;;;;;;;1.55;1.45;;;5.90;99.90;;;;;;5129554;27;20185;-73
2023/11/17 08:45:40;;;;;;;3.22;1.35;;;5.80;99.90;;;;;;5125442;27;20200;-73
2023/11/17 08:48:09;;;;;;;1.08;0.88;;;5.90;99.90;;;;;;5137473;27;20213;-73
2023/11/17 08:50:35;;;;;;;0.88;0.88;;;5.80;99.90;;;;;;5128093;27;20508;-73
2023/11/17 08:53:03;;;;;;;1.55;1.25;;;5.90;99.90;;;;;;5132678;27;20661;-72
2023/11/17 08:55:30;;;;;;;1.15;1.05;;;6.00;99.90;;;;;;5126693;27;20197;-73
2023/11/17 08:57:57;;;;;;;2.10;1.40;;;6.00;99.90;;;;;;5134370;27;20315;-73
2023/11/17 09:00:25;;;;;;;1.25;1.17;;;6.00;99.90;;;;;;5132754;27;20200;-73
2023/11/17 09:02:54;;;;;;;1.33;1.23;;;6.00;99.90;;;;;;5134396;27;20192;-73
2023/11/17 09:05:23;;;;;;;1.15;0.57;;;6.10;99.90;;;;;;5136191;27;20265;-73
2023/11/17 09:07:51;;;;;;;2.13;1.25;;;6.10;99.90;;;;;;5136366;27;20613;-73
2023/11/17 09:10:20;;;;;;;1.50;1.40;;;6.00;99.90;;;;;;5136104;27;20301;-73
2023/11/17 09:12:47;;;;;;;1.65;1.55;;;6.20;99.90;;;;;;5128933;27;20196;-73
2023/11/17 09:15:16;;;;;;;0.90;0.90;;;6.20;99.90;;;;;;5121423;27;20609;-73
2023/11/17 09:17:46;;;;;;;2.70;1.60;;;6.30;99.90;;;;;;5132729;27;20722;-73
2023/11/17 09:20:17;;;;;;;1.17;1.08;;;6.30;99.90;;;;;;5133846;27;20190;-73
2023/11/17 09:22:45;;;;;;;1.20;1.00;;;6.10;99.90;;;;;;5132807;27;20203;-73
2023/11/17 09:25:14;;;;;;;1.00;0.80;;;6.20;99.90;;;;;;5136614;27;20204;-73
2023/11/17 09:27:42;;;;;;;1.05;0.82;;;6.30;99.90;;;;;;5136965;27;20221;-73
2023/11/17 09:30:12;;;;;;;1.73;1.33;;;6.20;99.90;;;;;;5132664;27;20217;-73
2023/11/17 09:32:40;;;;;;;1.10;1.00;;;6.30;99.90;;;;;;5116612;27;20202;-73
2023/11/17 09:35:13;;;;;;;1.15;1.00;;;6.20;99.90;;;;;;5132605;27;20184;-73
2023/11/17 09:37:46;;;;;;;2.10;1.55;;;6.20;99.90;;;;;;5129198;27;20201;-73
2023/11/17 09:40:20;;;;;;;2.85;1.30;;;6.30;99.90;;;;;;5127389;27;20200;-73
2023/11/17 09:42:50;;;;;;;5.00;1.20;;;6.30;99.90;;;;;;5131259;27;20748;-74
2023/11/17 09:45:20;;;;;;;1.52;1.17;;;6.40;99.90;;;;;;5124362;27;20203;-74
2023/11/17 09:47:50;;;;;;;2.28;2.17;;;6.50;99.90;;;;;;5123334;27;20296;-73
2023/11/17 09:50:19;;;;;;;1.52;1.30;;;6.40;99.90;;;;;;5126756;27;20546;-73
2023/11/17 09:52:49;;;;;;;1.30;1.20;;;6.50;99.90;;;;;;5125062;27;20198;-72
2023/11/17 09:55:20;;;;;;;3.73;1.40;;;6.50;99.90;;;;;;5122485;27;20224;-73
2023/11/17 09:57:49;;;;;;;1.80;1.55;;;6.50;99.90;;;;;;5128964;27;20630;-73
2023/11/17 10:00:21;;;;;;;0.93;0.80;;;6.50;99.90;;;;;;5118713;27;20198;-73
2023/11/17 10:02:54;;;;;;;2.15;0.90;;;6.50;99.90;;;;;;5125868;27;20199;-73
2023/11/17 10:05:21;;;;;;;0.67;0.67;;;6.40;99.90;;;;;;5127236;27;20926;-76
2023/11/17 10:07:52;;;;;;;0.80;0.80;;;6.40;99.90;;;;;;5129201;27;20618;-75
2023/11/17 10:10:21;;;;;;;1.35;1.25;;;6.50;99.90;;;;;;5125255;27;20563;-75
2023/11/17 10:12:49;;;;;;;1.00;1.00;;;6.40;99.90;;;;;;5126491;27;20200;-75
2023/11/17 10:15:18;;;;;;;0.55;0.55;;;6.30;99.90;;;;;;5121918;27;20206;-75
2023/11/17 10:17:48;;;;;;;0.60;0.60;;;6.30;99.90;;;;;;5122230;27;20197;-75
2023/11/17 10:20:18;;;;;;;1.00;1.00;;;6.40;99.90;;;;;;5120752;27;20221;-75
2023/11/17 10:22:56;;;;;;;1.92;1.20;;;6.30;99.90;;;;;;5120998;27;20563;-75
2023/11/17 10:25:23;;;;;;;2.25;1.13;;;6.30;99.90;;;;;;5117022;27;20251;-75
2023/11/17 10:27:51;;;;;;;0.60;0.60;;;6.30;99.90;;;;;;5120914;27;20599;-76
2023/11/17 10:30:19;;;;;;;0.80;0.80;;;6.40;99.90;;;;;;5112496;27;20312;-75
2023/11/17 10:32:54;;;;;;;0.68;0.68;;;6.50;99.90;;;;;;5117880;27;20229;-75
2023/11/17 10:35:31;;;;;;;1.15;1.05;;;6.40;99.90;;;;;;5128443;27;20691;-75
2023/11/17 10:37:59;;;;;;;0.50;0.50;;;6.50;99.90;;;;;;5138538;27;20205;-75
2023/11/17 10:40:28;;;;;;;0.85;0.63;;;6.50;99.90;;;;;;5142921;27;20199;-75
2023/11/17 10:43:05;;;;;;;1.08;0.98;;;6.50;99.90;;;;;;5135364;27;20632;-75
2023/11/17 10:45:33;;;;;;;0.80;0.80;;;6.50;99.90;;;;;;5144708;27;20208;-75
2023/11/17 10:48:00;;;;;;;0.83;0.83;;;6.60;99.90;;;;;;5124312;27;20225;-75
2023/11/17 10:50:28;;;;;;;0.60;0.60;;;6.60;99.90;;;;;;5137475;27;20661;-75
2023/11/17 10:52:57;;;;;;;0.80;0.60;;;6.60;99.90;;;;;;5132788;27;20629;-76
2023/11/17 10:55:35;;;;;;;1.10;1.00;;;6.60;99.90;;;;;;5133934;27;20614;-75
2023/11/17 10:58:06;;;;;;;0.40;0.40;;;6.70;99.90;;;;;;5128027;27;20237;-75
2023/11/17 11:00:37;;;;;;;0.40;0.40;;;6.70;99.90;;;;;;5120712;27;20262;-75
2023/11/17 11:03:06;;;;;;;1.10;1.00;;;6.70;99.90;;;;;;5123475;27;20196;-76
2023/11/17 11:05:35;;;;;;;0.70;0.68;;;6.70;99.90;;;;;;5125867;27;20212;-75
2023/11/17 11:08:07;;;;;;;2.05;1.65;;;6.90;99.90;;;;;;5123512;27;20198;-75
2023/11/17 11:10:36;;;;;;;1.77;1.17;;;6.90;99.90;;;;;;5129513;27;20257;-78
2023/11/17 11:13:03;;;;;;;2.78;1.73;;;6.90;99.90;;;;;;5126719;27;20532;-79
2023/11/17 11:15:31;;;;;;;1.00;0.90;;;6.90;99.90;;;;;;5124586;27;20678;-78
2023/11/17 11:18:03;;;;;;;1.30;0.80;;;6.90;99.90;;;;;;5122721;27;20257;-79
2023/11/17 11:20:30;;;;;;;0.60;0.50;;;6.90;99.90;;;;;;5118837;27;21027;-77
2023/11/17 11:22:58;;;;;;;0.40;0.32;;;6.90;99.90;;;;;;5118746;27;20709;-75
2023/11/17 11:25:27;;;;;;;0.60;0.60;;;6.80;99.90;;;;;;5114870;27;20198;-75
2023/11/17 11:27:57;;;;;;;0.98;0.80;;;6.80;99.90;;;;;;5117513;27;20284;-74
2023/11/17 11:30:24;;;;;;;0.50;0.50;;;6.80;99.90;;;;;;5113134;27;20366;-76
2023/11/17 11:32:51;;;;;;;0.83;0.67;;;6.70;99.90;;;;;;5113159;27;20574;-75
2023/11/17 11:35:18;;;;;;;0.50;0.50;;;6.80;99.90;;;;;;5115029;27;20630;-75
2023/11/17 11:37:45;;;;;;;0.50;0.50;;;6.90;99.90;;;;;;5141199;27;20315;-75
2023/11/17 11:40:13;;;;;;;0.50;0.40;;;6.80;99.90;;;;;;5128327;27;20316;-73
2023/11/17 11:42:42;;;;;;;0.60;0.60;;;6.70;99.90;;;;;;5132789;27;20746;-73
2023/11/17 11:45:16;;;;;;;0.70;0.70;;;6.70;99.90;;;;;;5142504;27;20620;-74
2023/11/17 11:47:45;;;;;;;0.57;0.55;;;6.70;99.90;;;;;;5137918;27;20638;-75
2023/11/17 11:50:14;;;;;;;0.63;0.57;;;6.80;99.90;;;;;;5126336;27;20236;-75
2023/11/17 11:53:05;;;;;;;0.50;0.47;;;6.80;99.90;;;;;;5136352;27;20215;-74
2023/11/17 11:55:33;;;;;;;0.82;0.80;;;6.80;99.90;;;;;;5124046;27;21017;-73
2023/11/17 11:58:00;;;;;;;0.75;0.70;;;6.80;99.90;;;;;;5132886;27;20526;-73
2023/11/17 12:00:29;;;;;;;0.50;0.40;;;6.80;99.90;;;;;;5132093;27;20211;-72
2023/11/17 12:03:01;;;;;;;1.50;1.08;;;6.70;99.90;;;;;;5117095;27;20659;-72
2023/11/17 12:05:33;;;;;;;0.63;0.60;;;6.70;99.90;;;;;;5124393;27;20201;-72
2023/11/17 12:08:01;;;;;;;0.85;0.65;;;6.80;99.90;;;;;;5125676;27;20622;-72
2023/11/17 12:10:35;;;;;;;1.27;0.73;;;6.70;99.90;;;;;;5125629;27;20245;-72
2023/11/17 12:13:02;;;;;;;0.70;0.70;;;6.70;99.90;;;;;;5120339;27;20213;-72
2023/11/17 12:15:31;;;;;;;0.75;0.50;;;6.70;99.90;;;;;;5123030;27;20209;-72
2023/11/17 12:18:00;;;;;;;0.80;0.80;;;6.70;99.90;;;;;;5116300;27;20192;-72
2023/11/17 12:20:29;;;;;;;1.25;0.82;;;6.70;99.90;;;;;;5119202;27;20627;-72
2023/11/17 12:23:00;;;;;;;0.52;0.40;;;6.60;99.90;;;;;;5118731;27;20192;-72
2023/11/17 12:25:29;;;;;;;0.90;0.80;;;6.70;99.90;;;;;;5114535;27;20202;-72
2023/11/17 12:27:56;;;;;;;0.70;0.70;;;6.70;99.90;;;;;;5112762;27;21170;-72
2023/11/17 12:30:24;;;;;;;0.50;0.50;;;6.70;99.90;;;;;;5114138;27;20237;-72
2023/11/17 12:32:55;;;;;;;0.40;0.40;;;6.70;99.90;;;;;;5114895;27;20638;-72
2023/11/17 12:35:22;;;;;;;1.30;0.57;;;6.80;99.90;;;;;;5118841;27;20625;-72
2023/11/17 12:37:51;;;;;;;0.80;0.77;;;6.70;99.90;;;;;;5144849;27;20657;-72
2023/11/17 12:40:19;;;;;;;1.48;1.38;;;6.80;99.90;;;;;;5118780;27;20207;-72
2023/11/17 12:42:47;;;;;;;0.80;0.70;;;6.70;99.90;;;;;;5130697;27;20279;-72
2023/11/17 12:45:16;;;;;;;0.75;0.75;;;6.70;99.90;;;;;;5137293;27;20200;-72
2023/11/17 12:47:43;;;;;;;1.27;1.17;;;6.70;99.90;;;;;;5129516;27;20254;-74
2023/11/17 12:50:11;;;;;;;1.13;0.80;;;6.70;99.90;;;;;;5135618;27;20252;-72
2023/11/17 12:52:53;;;;;;;1.15;1.05;;;6.80;99.90;;;;;;5131417;27;20658;-72
2023/11/17 12:55:20;;;;;;;1.00;0.60;;;6.80;99.90;;;;;;5124357;27;20284;-73
2023/11/17 12:57:47;;;;;;;0.90;0.70;;;6.70;99.90;;;;;;5111725;27;20190;-73
2023/11/17 13:00:16;;;;;;;0.60;0.60;;;6.60;99.90;;;;;;5127241;27;20212;-73
2023/11/17 13:02:43;;;;;;;0.50;0.50;;;6.70;99.90;;;;;;5132057;27;20284;-73
2023/11/17 13:05:14;;;;;;;0.45;0.45;;;6.70;99.90;;;;;;5124238;27;20186;-73